»·PEaware :: N7499C KPDX-KAST

N7499C :: KPDX-KAST

FLIGHT INFORMATION

Flight Status: Arrived
Operator: Privately registered:
United States
More flights under this callsign
Pilot: Nick W. (27601)
Aircraft: CESSNA 172 SKYHAWK
(C172)
More flights by this aircraft type
Origin: KPDX Portland Intl
United States
Destination: KAST Astoria Regl
United States
More flights between these airports :: More routes between these airports
Route: +PTLD1 BTG V112 AST
File this flight plan on PilotEdge
Remarks: RNAV26 at KAST vis PITER
Altitude:
(Current/Filed)
6,000ft
Speed:
(Current/Filed)
110kts
Departed: 30-Jun-20 02:09 PM
Arrived: 30-Jun-20 02:58 PM
Distance/Time
Traveled:
63nm/0:49
Distance/Time
To Go:
Arrived

Flight Plot

Page will automatically refresh every two minutes.


Map Options




Map Legend


Flown Route
Filed Route
Departure Airport
Arrival Airport
Navaid (VOR, NDB)
Fix

Horizontal Profiles

Position Reports

Time Latitude Longitude Heading Altitude Ground
Speed
30-Jun-20 13:49 45.587425 -122.583532 208 26ft 0kts
30-Jun-20 13:50 45.587425 -122.583532 208 26ft 0kts
30-Jun-20 13:51 45.587425 -122.583532 208 26ft 0kts
30-Jun-20 13:52 45.587425 -122.583532 208 26ft 0kts
30-Jun-20 13:53 45.587425 -122.583532 208 26ft 0kts
30-Jun-20 13:54 45.587425 -122.583532 208 26ft 0kts
30-Jun-20 13:55 45.587425 -122.583532 208 26ft 0kts
30-Jun-20 13:56 45.587425 -122.583532 208 26ft 0kts
30-Jun-20 13:57 45.587425 -122.583532 208 26ft 0kts
30-Jun-20 13:58 45.587425 -122.583532 208 26ft 0kts
30-Jun-20 13:59 45.587425 -122.583532 208 26ft 0kts
30-Jun-20 14:00 45.587335 -122.583618 214 26ft 2kts
30-Jun-20 14:01 45.587631 -122.583622 44 27ft 2kts
30-Jun-20 14:02 45.588019 -122.581449 119 29ft 11kts
30-Jun-20 14:03 45.586359 -122.577202 121 28ft 16kts
30-Jun-20 14:04 45.584406 -122.572197 116 30ft 18kts
30-Jun-20 14:05 45.582753 -122.567559 75 32ft 7kts
30-Jun-20 14:06 45.582792 -122.567430 49 32ft 0kts
30-Jun-20 14:07 45.582797 -122.567419 58 32ft 1kts
30-Jun-20 14:08 45.585160 -122.570654 299 32ft 67kts
30-Jun-20 14:09 45.592853 -122.590146 302 727ft 75kts
30-Jun-20 14:10 45.601115 -122.610023 303 1462ft 75kts
30-Jun-20 14:11 45.608074 -122.630802 293 2148ft 76kts
30-Jun-20 14:12 45.613792 -122.652770 295 2809ft 75kts
30-Jun-20 14:13 45.625302 -122.662011 20 3492ft 70kts
30-Jun-20 14:14 45.640163 -122.660870 323 4103ft 67kts
30-Jun-20 14:15 45.655215 -122.674144 334 4756ft 69kts
30-Jun-20 14:16 45.673282 -122.687295 332 5505ft 65kts
30-Jun-20 14:17 45.687339 -122.697904 331 5934ft 79kts
30-Jun-20 14:18 45.703654 -122.708474 333 6084ft 91kts
30-Jun-20 14:19 45.721651 -122.720086 335 6007ft 98kts
30-Jun-20 14:20 45.742133 -122.726549 15 5825ft 109kts
30-Jun-20 14:21 45.762919 -122.723291 335 5950ft 87kts
30-Jun-20 14:22 45.782727 -122.732836 346 6023ft 97kts
30-Jun-20 14:23 45.796904 -122.754479 301 6054ft 102kts
30-Jun-20 14:24 45.809257 -122.782027 303 6118ft 98kts
30-Jun-20 14:25 45.823863 -122.819137 292 6102ft 102kts
30-Jun-20 14:26 45.838211 -122.856865 307 6123ft 100kts
30-Jun-20 14:27 45.848587 -122.910222 290 6105ft 105kts
30-Jun-20 14:28 45.872677 -122.949275 318 5942ft 96kts
30-Jun-20 14:29 45.888654 -122.993364 291 6001ft 90kts
30-Jun-20 14:30 45.898922 -123.042617 305 6016ft 93kts
30-Jun-20 14:31 45.910830 -123.070599 309 5949ft 90kts
30-Jun-20 14:32 45.924679 -123.092791 316 5761ft 93kts
30-Jun-20 14:33 45.942218 -123.116403 310 5580ft 92kts
30-Jun-20 14:34 45.957610 -123.149226 306 5369ft 94kts
30-Jun-20 14:35 45.978808 -123.179277 310 5174ft 93kts
30-Jun-20 14:36 45.994031 -123.209416 311 5015ft 93kts
30-Jun-20 14:37 46.013861 -123.240595 309 4847ft 93kts
30-Jun-20 14:38 46.032491 -123.264856 309 4704ft 93kts
30-Jun-20 14:39 46.047205 -123.292729 298 4578ft 93kts
30-Jun-20 14:40 46.061127 -123.322737 314 4597ft 97kts
30-Jun-20 14:41 46.075808 -123.353688 306 4606ft 100kts
30-Jun-20 14:42 46.090229 -123.384925 315 4663ft 99kts
30-Jun-20 14:43 46.105871 -123.409412 311 4715ft 97kts
30-Jun-20 14:44 46.120333 -123.436291 309 4675ft 97kts
30-Jun-20 14:45 46.128640 -123.468124 293 4483ft 99kts
30-Jun-20 14:46 46.132302 -123.501910 281 4263ft 97kts
30-Jun-20 14:47 46.136125 -123.536060 277 3980ft 95kts
30-Jun-20 14:48 46.138010 -123.571387 275 3823ft 95kts
30-Jun-20 14:49 46.140520 -123.607399 278 3693ft 86kts
30-Jun-20 14:50 46.142949 -123.642199 281 3539ft 75kts
30-Jun-20 14:51 46.145277 -123.681851 277 3069ft 84kts
30-Jun-20 14:52 46.148523 -123.717667 281 2533ft 85kts
30-Jun-20 14:53 46.149820 -123.753105 273 1916ft 85kts
30-Jun-20 14:54 46.152863 -123.789297 281 1302ft 84kts
30-Jun-20 14:55 46.155298 -123.824942 273 735ft 84kts
30-Jun-20 14:56 46.158010 -123.861225 271 227ft 83kts
30-Jun-20 14:57 46.158563 -123.877260 239 14ft 6kts

Navigation Log

Ident Type
Flight plan parsing failed, navigation log unavailable